createdAt,value
2022-10-21T00:01:19.279Z,4.50
2022-10-21T00:04:06.494Z,4.50
2022-10-21T00:06:53.801Z,4.90
2022-10-21T00:09:40.852Z,4.77
2022-10-21T00:12:30.350Z,4.83
2022-10-21T00:15:17.756Z,4.90
2022-10-21T00:18:05.491Z,4.83
2022-10-21T00:20:52.829Z,4.47
2022-10-21T00:23:40.155Z,4.77
2022-10-21T00:26:27.231Z,4.70
2022-10-21T00:29:15.652Z,4.53
2022-10-21T00:32:02.521Z,4.33
2022-10-21T00:34:49.716Z,4.47
2022-10-21T00:37:37.300Z,4.50
2022-10-21T00:40:24.434Z,4.70
2022-10-21T00:43:12.356Z,5.03
2022-10-21T00:46:04.046Z,4.83
2022-10-21T00:48:56.592Z,4.80
2022-10-21T00:51:46.194Z,4.27
2022-10-21T00:54:34.022Z,4.80
2022-10-21T00:57:23.026Z,5.17
2022-10-21T01:00:11.145Z,4.37
2022-10-21T01:03:00.218Z,3.73
2022-10-21T01:05:47.697Z,4.73
2022-10-21T01:08:35.816Z,5.27
2022-10-21T01:11:24.465Z,5.40
2022-10-21T01:14:29.391Z,4.70
2022-10-21T01:17:40.627Z,4.93
2022-10-21T01:21:04.067Z,4.83
2022-10-21T01:24:30.169Z,4.83
2022-10-21T01:27:33.934Z,4.73
2022-10-21T01:30:37.421Z,4.93
2022-10-21T01:33:39.216Z,4.50
2022-10-21T01:36:36.225Z,4.70
2022-10-21T01:39:28.249Z,5.47
2022-10-21T01:42:21.432Z,4.97
2022-10-21T01:45:14.843Z,4.70
2022-10-21T01:48:08.482Z,5.07
2022-10-21T01:50:59.680Z,4.97
2022-10-21T01:53:55.206Z,5.07
2022-10-21T01:56:44.959Z,4.77
2022-10-21T01:59:33.586Z,5.40
2022-10-21T02:02:23.290Z,5.33
2022-10-21T02:05:16.961Z,4.80
2022-10-21T02:08:04.969Z,5.53
2022-10-21T02:10:57.529Z,6.07
2022-10-21T02:13:49.349Z,5.03
2022-10-21T02:16:39.978Z,5.30
2022-10-21T02:19:27.717Z,5.17
2022-10-21T02:22:21.538Z,5.03
2022-10-21T02:25:15.713Z,5.57
2022-10-21T02:28:03.032Z,4.57
2022-10-21T02:31:05.021Z,5.03
2022-10-21T02:34:05.215Z,5.53
2022-10-21T02:36:57.290Z,6.07
2022-10-21T02:39:51.946Z,5.20
2022-10-21T02:42:41.753Z,5.10
2022-10-21T02:45:28.939Z,4.93
2022-10-21T02:48:16.209Z,5.33
2022-10-21T02:51:05.070Z,5.67
2022-10-21T02:53:52.263Z,5.13
2022-10-21T02:56:40.900Z,5.27
2022-10-21T02:59:27.635Z,5.60
2022-10-21T03:02:14.593Z,5.83
2022-10-21T03:05:01.515Z,5.60
2022-10-21T03:07:48.811Z,5.03
2022-10-21T03:10:35.925Z,4.93
2022-10-21T03:13:24.289Z,5.67
2022-10-21T03:16:11.291Z,5.47
2022-10-21T03:18:58.525Z,5.90
2022-10-21T03:21:45.600Z,5.80
2022-10-21T03:24:32.679Z,5.90
2022-10-21T03:27:20.035Z,6.17
2022-10-21T03:30:10.062Z,5.43
2022-10-21T03:32:57.104Z,5.70
2022-10-21T03:35:44.179Z,5.47
2022-10-21T03:38:30.990Z,6.07
2022-10-21T03:41:18.337Z,6.43
2022-10-21T03:44:05.611Z,6.70
2022-10-21T03:46:54.416Z,6.30
2022-10-21T03:49:41.770Z,5.80
2022-10-21T03:52:28.767Z,6.23
2022-10-21T03:55:17.102Z,6.07
2022-10-21T03:58:04.617Z,6.10
2022-10-21T04:00:53.647Z,6.13
2022-10-21T04:03:42.427Z,6.40
2022-10-21T04:06:29.255Z,5.77
2022-10-21T04:09:16.278Z,6.50
2022-10-21T04:12:03.527Z,6.47
2022-10-21T04:14:50.923Z,6.17
2022-10-21T04:17:38.246Z,6.10
2022-10-21T04:20:26.883Z,6.10
2022-10-21T04:23:13.981Z,6.17
2022-10-21T04:26:02.089Z,6.70
2022-10-21T04:28:48.885Z,6.20
2022-10-21T04:31:36.312Z,6.10
2022-10-21T04:34:23.626Z,6.77
2022-10-21T04:37:12.173Z,6.50
2022-10-21T04:39:59.333Z,6.50
2022-10-21T04:42:48.691Z,6.87
2022-10-21T04:45:35.642Z,6.60
2022-10-21T04:48:23.451Z,6.37
2022-10-21T04:51:10.552Z,7.40
2022-10-21T04:53:58.936Z,6.70
2022-10-21T04:56:45.686Z,6.50
2022-10-21T04:59:33.218Z,6.80
2022-10-21T05:02:23.057Z,6.47
2022-10-21T05:05:12.667Z,6.90
2022-10-21T05:07:59.889Z,6.87
2022-10-21T05:10:48.816Z,7.13
2022-10-21T05:13:36.054Z,7.23
2022-10-21T05:16:23.882Z,7.20
2022-10-21T05:19:12.420Z,6.70
2022-10-21T05:21:59.456Z,6.80
2022-10-21T05:24:47.441Z,6.93
2022-10-21T05:27:35.939Z,7.03
2022-10-21T05:30:23.162Z,7.70
2022-10-21T05:33:10.494Z,7.37
2022-10-21T05:36:00.879Z,7.67
2022-10-21T05:38:48.188Z,6.67
2022-10-21T05:41:35.403Z,6.97
2022-10-21T05:44:24.366Z,7.47
2022-10-21T05:47:11.367Z,7.50
2022-10-21T05:49:58.555Z,7.20
2022-10-21T05:52:45.765Z,6.63
2022-10-21T05:55:33.058Z,7.00
2022-10-21T05:58:20.360Z,7.23
2022-10-21T06:01:08.965Z,6.83
2022-10-21T06:03:56.095Z,7.03
2022-10-21T06:06:43.171Z,7.30
2022-10-21T06:09:29.963Z,6.70
2022-10-21T06:12:17.139Z,6.60
2022-10-21T06:15:04.527Z,7.03
2022-10-21T06:17:53.962Z,6.90
2022-10-21T06:20:41.241Z,6.77
2022-10-21T06:23:28.557Z,6.80
2022-10-21T06:26:16.982Z,6.87
2022-10-21T06:29:03.942Z,7.43
2022-10-21T06:31:51.326Z,7.00
2022-10-21T06:34:40.034Z,6.97
2022-10-21T06:37:27.351Z,7.30
2022-10-21T06:40:14.647Z,7.73
2022-10-21T06:43:02.399Z,7.87
2022-10-21T06:45:49.687Z,7.93
2022-10-21T06:48:37.001Z,7.23
2022-10-21T06:51:25.778Z,7.43
2022-10-21T06:54:12.971Z,7.40
2022-10-21T06:57:00.234Z,7.77
2022-10-21T06:59:48.103Z,7.53
2022-10-21T07:02:35.506Z,8.40
2022-10-21T07:05:22.493Z,7.77
2022-10-21T07:08:12.711Z,8.03
2022-10-21T07:11:00.130Z,8.20
2022-10-21T07:13:47.008Z,7.67
2022-10-21T07:16:35.853Z,7.87
2022-10-21T07:19:22.900Z,7.70
2022-10-21T07:22:10.214Z,8.27
2022-10-21T07:24:58.585Z,7.43
2022-10-21T07:27:48.135Z,7.90
2022-10-21T07:30:40.678Z,7.27
2022-10-21T07:33:28.337Z,7.53
2022-10-21T07:36:17.257Z,7.10
2022-10-21T07:39:07.484Z,6.57
2022-10-21T07:41:58.096Z,7.83
2022-10-21T07:44:45.061Z,6.77
2022-10-21T07:47:32.366Z,7.17
2022-10-21T07:50:19.674Z,7.57
2022-10-21T07:53:12.462Z,8.07
2022-10-21T07:56:05.963Z,7.10
2022-10-21T07:58:54.980Z,7.40
2022-10-21T08:01:44.391Z,7.07
2022-10-21T08:04:33.311Z,6.97
2022-10-21T08:07:20.263Z,7.57
2022-10-21T08:10:07.853Z,6.97
2022-10-21T08:12:54.836Z,7.50
2022-10-21T08:15:44.627Z,7.33
2022-10-21T08:18:31.962Z,7.30
2022-10-21T08:21:18.779Z,7.53
2022-10-21T08:24:06.559Z,8.33
2022-10-21T08:26:53.913Z,6.87
2022-10-21T08:29:41.173Z,7.13
2022-10-21T08:32:29.396Z,7.03
2022-10-21T08:35:16.575Z,6.97
2022-10-21T08:38:04.126Z,7.67
2022-10-21T08:40:54.933Z,6.70
2022-10-21T08:43:44.667Z,7.60
2022-10-21T08:46:36.721Z,6.90
2022-10-21T08:49:31.084Z,6.60
2022-10-21T08:52:22.317Z,6.90
2022-10-21T08:55:16.943Z,6.50
2022-10-21T08:58:05.451Z,7.18
2022-10-21T09:00:58.815Z,6.67
2022-10-21T09:03:54.233Z,6.55
2022-10-21T09:06:53.621Z,7.38
2022-10-21T09:09:49.161Z,6.50
2022-10-21T09:12:50.106Z,7.30
2022-10-21T09:15:55.600Z,7.07
2022-10-21T09:18:52.021Z,7.07
2022-10-21T09:21:51.298Z,6.75
2022-10-21T09:24:49.606Z,6.85
2022-10-21T09:27:55.162Z,6.70
2022-10-21T09:30:44.767Z,5.97
2022-10-21T09:33:34.752Z,6.45
2022-10-21T09:36:27.821Z,6.25
2022-10-21T09:39:20.309Z,6.35
2022-10-21T09:42:13.494Z,6.55
2022-10-21T09:45:20.185Z,6.03
2022-10-21T09:48:19.181Z,6.07
2022-10-21T09:51:11.982Z,6.57
2022-10-21T09:54:05.843Z,6.00
2022-10-21T09:57:01.221Z,5.90
2022-10-21T09:59:52.927Z,6.40
2022-10-21T10:02:43.130Z,6.47
2022-10-21T10:05:39.296Z,6.68
2022-10-21T10:08:33.700Z,6.63
2022-10-21T10:11:22.470Z,6.75
2022-10-21T10:14:25.705Z,6.88
2022-10-21T10:17:28.995Z,7.57
2022-10-21T10:20:19.579Z,6.85
2022-10-21T10:23:18.375Z,6.25
2022-10-21T10:26:05.557Z,7.10
2022-10-21T10:28:56.233Z,7.35
2022-10-21T10:31:50.978Z,6.75
2022-10-21T10:34:41.083Z,7.78
2022-10-21T10:37:29.699Z,6.97
2022-10-21T10:40:21.937Z,7.70
2022-10-21T10:43:15.975Z,7.45
2022-10-21T10:46:05.539Z,7.20
2022-10-21T10:48:55.256Z,7.22
2022-10-21T10:51:43.055Z,7.20
2022-10-21T10:54:30.442Z,7.25
2022-10-21T10:57:29.866Z,7.10
2022-10-21T11:00:27.219Z,6.57
2022-10-21T11:03:25.838Z,7.00
2022-10-21T11:06:19.072Z,7.35
2022-10-21T11:09:09.486Z,7.18
2022-10-21T11:11:56.755Z,7.05
2022-10-21T11:14:45.081Z,6.65
2022-10-21T11:17:38.091Z,6.80
2022-10-21T11:20:33.290Z,6.95
2022-10-21T11:23:40.924Z,7.25
2022-10-21T11:26:37.321Z,6.57
2022-10-21T11:29:38.303Z,6.57
2022-10-21T11:32:34.986Z,6.85
2022-10-21T11:35:35.729Z,6.78
2022-10-21T11:38:37.577Z,6.97
2022-10-21T11:41:34.166Z,6.60
2022-10-21T11:44:29.504Z,6.80
2022-10-21T11:47:26.030Z,7.78
2022-10-21T11:53:31.939Z,7.43
2022-10-21T11:56:26.744Z,7.30
2022-10-21T12:02:21.590Z,6.43
2022-10-21T12:05:17.082Z,6.78
2022-10-21T12:08:13.196Z,6.40
2022-10-21T12:11:07.317Z,6.70
2022-10-21T12:13:58.731Z,6.30
2022-10-21T12:16:47.812Z,6.65
2022-10-21T12:19:36.955Z,6.28
2022-10-21T12:22:27.383Z,6.78
2022-10-21T12:25:25.273Z,6.25
2022-10-21T12:28:21.355Z,6.43
2022-10-21T12:31:30.137Z,5.85
2022-10-21T12:34:17.618Z,6.03
2022-10-21T12:37:04.821Z,4.82
2022-10-21T12:40:09.289Z,5.20
2022-10-21T12:43:01.162Z,4.50
2022-10-21T12:46:03.740Z,4.80
2022-10-21T12:48:52.391Z,4.88
2022-10-21T12:51:40.523Z,4.45
2022-10-21T12:54:30.862Z,4.78
2022-10-21T12:57:27.700Z,4.45
2022-10-21T13:00:51.214Z,4.75
2022-10-21T13:03:56.088Z,5.00
2022-10-21T13:06:54.925Z,5.20
2022-10-21T13:09:44.566Z,5.30
2022-10-21T13:12:33.441Z,5.65
2022-10-21T13:15:46.632Z,4.80
2022-10-21T13:18:55.002Z,5.68
2022-10-21T13:21:43.195Z,5.60
2022-10-21T13:24:32.717Z,5.70
2022-10-21T13:27:29.528Z,6.10
2022-10-21T13:30:28.902Z,5.63
2022-10-21T13:33:18.826Z,6.05
2022-10-21T13:36:13.042Z,5.65
2022-10-21T13:39:02.529Z,5.63
2022-10-21T13:41:58.277Z,5.78
2022-10-21T13:44:52.763Z,6.30
2022-10-21T13:47:40.337Z,6.22
2022-10-21T13:50:28.369Z,5.70
2022-10-21T13:53:35.518Z,5.88
2022-10-21T13:56:24.747Z,5.70
2022-10-21T13:59:23.781Z,5.68
2022-10-21T14:02:27.821Z,5.90
2022-10-21T14:05:28.917Z,6.05
2022-10-21T14:08:25.081Z,5.30
2022-10-21T14:11:19.115Z,5.85
2022-10-21T14:14:10.770Z,5.45
2022-10-21T14:17:00.750Z,5.90
2022-10-21T14:19:49.853Z,5.85
2022-10-21T14:22:38.324Z,5.40
2022-10-21T14:25:25.944Z,5.63
2022-10-21T14:28:14.963Z,5.40
2022-10-21T14:31:02.729Z,5.57
2022-10-21T14:33:49.732Z,5.20
2022-10-21T14:37:00.499Z,5.97
2022-10-21T14:39:48.246Z,5.85
2022-10-21T14:42:35.376Z,6.18
2022-10-21T14:45:27.981Z,5.50
2022-10-21T14:48:24.216Z,6.18
2022-10-21T14:51:16.519Z,5.75
2022-10-21T14:54:07.247Z,6.05
2022-10-21T14:56:54.564Z,6.32
2022-10-21T14:59:43.856Z,5.53
2022-10-21T15:02:36.442Z,6.82
2022-10-21T15:05:36.201Z,6.20
2022-10-21T15:08:32.045Z,6.57
2022-10-21T15:11:36.059Z,6.03
2022-10-21T15:14:34.764Z,6.45
2022-10-21T15:17:23.417Z,5.95
2022-10-21T15:20:17.303Z,5.93
2022-10-21T15:23:04.677Z,5.30
2022-10-21T15:25:53.976Z,5.35
2022-10-21T15:28:41.746Z,5.47
2022-10-21T15:31:30.435Z,5.65
2022-10-21T15:34:17.927Z,5.38
2022-10-21T15:37:07.319Z,6.57
2022-10-21T15:39:54.506Z,6.38
2022-10-21T15:42:42.440Z,6.82
2022-10-21T15:45:29.609Z,6.07
2022-10-21T15:48:16.984Z,6.40
2022-10-21T15:51:04.529Z,6.22
2022-10-21T15:53:53.129Z,6.75
2022-10-21T15:56:40.846Z,6.43
2022-10-21T15:59:28.827Z,5.85
2022-10-21T16:02:18.060Z,6.57
2022-10-21T16:05:06.005Z,6.60
2022-10-21T16:07:53.103Z,6.55
2022-10-21T16:10:47.550Z,6.35
2022-10-21T16:13:34.661Z,6.85
2022-10-21T16:16:25.120Z,7.13
2022-10-21T16:19:12.591Z,6.70
2022-10-21T16:21:59.833Z,6.82
2022-10-21T16:24:46.818Z,6.90
2022-10-21T16:27:44.085Z,6.05
2022-10-21T16:30:42.142Z,6.50
2022-10-21T16:33:30.047Z,6.40
2022-10-21T16:36:17.894Z,7.03
2022-10-21T16:39:06.270Z,5.93
2022-10-21T16:41:53.413Z,6.53
2022-10-21T16:44:41.875Z,6.72
2022-10-21T16:47:29.006Z,6.82
2022-10-21T16:50:22.274Z,6.88
2022-10-21T16:53:14.580Z,6.65
2022-10-21T16:56:02.742Z,6.65
2022-10-21T16:58:50.320Z,7.18
2022-10-21T17:01:39.303Z,7.47
2022-10-21T17:04:26.964Z,7.32
2022-10-21T17:07:14.311Z,7.72
2022-10-21T17:10:01.806Z,8.73
2022-10-21T17:12:48.635Z,7.50
2022-10-21T17:15:35.881Z,8.77
2022-10-21T17:18:24.552Z,9.07
2022-10-21T17:21:18.915Z,8.23
2022-10-21T17:24:07.009Z,8.27
2022-10-21T17:26:56.055Z,8.38
2022-10-21T17:29:43.050Z,8.13
2022-10-21T17:32:30.254Z,8.27
2022-10-21T17:35:19.780Z,8.57
2022-10-21T17:38:07.049Z,8.00
2022-10-21T17:40:54.139Z,10.30
2022-10-21T17:43:41.201Z,8.45
2022-10-21T17:46:28.265Z,9.75
2022-10-21T17:49:15.234Z,11.38
2022-10-21T17:52:03.574Z,9.77
2022-10-21T17:54:50.665Z,9.45
2022-10-21T17:57:38.046Z,10.07
2022-10-21T18:00:25.033Z,9.43
2022-10-21T18:03:12.079Z,8.40
2022-10-21T18:05:59.355Z,8.60
2022-10-21T18:08:48.343Z,8.82
2022-10-21T18:11:36.308Z,8.70
2022-10-21T18:14:23.623Z,8.63
2022-10-21T18:17:10.819Z,8.82
2022-10-21T18:19:58.123Z,8.85
2022-10-21T18:22:44.991Z,8.52
2022-10-21T18:25:35.994Z,8.60
2022-10-21T18:28:23.195Z,8.45
2022-10-21T18:31:09.987Z,9.35
2022-10-21T18:33:58.177Z,8.07
2022-10-21T18:36:45.209Z,9.40
2022-10-21T18:39:32.458Z,9.10
2022-10-21T18:42:21.170Z,8.27
2022-10-21T18:45:08.957Z,8.27
2022-10-21T18:47:55.845Z,8.63
2022-10-21T18:50:42.698Z,8.57
2022-10-21T18:53:29.641Z,8.15
2022-10-21T18:56:17.694Z,8.25
2022-10-21T18:59:06.628Z,8.98
2022-10-21T19:01:54.829Z,8.45
2022-10-21T19:04:41.998Z,7.55
2022-10-21T19:07:29.135Z,8.27
2022-10-21T19:10:16.890Z,8.43
2022-10-21T19:13:04.228Z,7.93
2022-10-21T19:15:52.927Z,8.80
2022-10-21T19:18:40.235Z,8.38
2022-10-21T19:21:27.750Z,8.30
2022-10-21T19:24:14.713Z,8.02
2022-10-21T19:27:01.892Z,9.48
2022-10-21T19:29:49.254Z,8.50
2022-10-21T19:32:38.168Z,7.95
2022-10-21T19:35:25.087Z,9.85
2022-10-21T19:38:20.903Z,8.45
2022-10-21T19:41:20.500Z,8.77
2022-10-21T19:44:08.321Z,8.30
2022-10-21T19:46:55.760Z,9.13
2022-10-21T19:49:44.384Z,8.20
2022-10-21T19:52:31.742Z,8.20
2022-10-21T19:55:19.637Z,9.02
2022-10-21T19:58:07.302Z,8.60
2022-10-21T20:01:02.090Z,8.88
2022-10-21T20:03:51.064Z,9.38
2022-10-21T20:06:39.952Z,8.57
2022-10-21T20:09:26.859Z,8.27
2022-10-21T20:12:13.908Z,9.00
2022-10-21T20:15:01.222Z,8.00
2022-10-21T20:17:51.968Z,8.43
2022-10-21T20:20:42.019Z,7.50
2022-10-21T20:23:31.826Z,7.90
2022-10-21T20:26:20.014Z,8.32
2022-10-21T20:29:07.464Z,7.85
2022-10-21T20:31:54.655Z,8.02
2022-10-21T20:34:43.369Z,7.28
2022-10-21T20:37:30.459Z,7.30
2022-10-21T20:40:20.378Z,8.73
2022-10-21T20:43:07.629Z,7.72
2022-10-21T20:45:54.327Z,8.10
2022-10-21T20:48:42.765Z,7.47
2022-10-21T20:51:31.118Z,8.43
2022-10-21T20:54:20.310Z,7.88
2022-10-21T20:57:08.934Z,8.60
2022-10-21T20:59:55.853Z,7.57
2022-10-21T21:02:42.867Z,9.15
2022-10-21T21:05:29.815Z,8.40
2022-10-21T21:08:17.022Z,8.32
2022-10-21T21:11:04.613Z,9.60
2022-10-21T21:13:53.156Z,9.60
2022-10-21T21:16:40.058Z,9.63
2022-10-21T21:19:27.489Z,10.10
2022-10-21T21:22:14.916Z,9.48
2022-10-21T21:25:02.188Z,9.93
2022-10-21T21:27:49.253Z,10.25
2022-10-21T21:30:37.873Z,9.48
2022-10-21T21:33:24.994Z,9.95
2022-10-21T21:36:12.033Z,9.23
2022-10-21T21:38:59.539Z,10.75
2022-10-21T21:41:46.581Z,9.48
2022-10-21T21:44:34.392Z,10.23
2022-10-21T21:47:22.934Z,10.07
2022-10-21T21:50:10.552Z,10.40
2022-10-21T21:52:57.799Z,10.10
2022-10-21T21:55:44.678Z,10.15
2022-10-21T21:58:32.162Z,9.82
2022-10-21T22:01:21.989Z,10.50
2022-10-21T22:04:10.448Z,9.93
2022-10-21T22:07:01.880Z,10.65
2022-10-21T22:09:50.218Z,9.68
2022-10-21T22:12:38.034Z,9.65
2022-10-21T22:18:33.114Z,10.38
2022-10-21T22:21:21.946Z,10.73
2022-10-21T22:24:08.919Z,10.73
2022-10-21T22:26:56.182Z,10.63
2022-10-21T22:29:43.527Z,10.95
2022-10-21T22:32:30.587Z,10.93
2022-10-21T22:35:17.515Z,10.55
2022-10-21T22:38:06.224Z,10.05
2022-10-21T22:40:54.531Z,10.77
2022-10-21T22:43:42.744Z,10.10
2022-10-21T22:46:34.402Z,10.05
2022-10-21T22:49:22.128Z,10.15
2022-10-21T22:52:09.047Z,9.85
2022-10-21T22:54:57.301Z,9.95
2022-10-21T22:57:44.440Z,10.45
2022-10-21T23:00:31.418Z,10.35
2022-10-21T23:03:19.894Z,9.45
2022-10-21T23:06:07.255Z,9.85
2022-10-21T23:08:54.585Z,10.32
2022-10-21T23:11:43.105Z,10.68
2022-10-21T23:14:30.332Z,10.25
2022-10-21T23:17:17.608Z,9.80
2022-10-21T23:20:05.299Z,9.32
2022-10-21T23:22:52.151Z,9.95
2022-10-21T23:25:39.517Z,10.35
2022-10-21T23:28:27.708Z,10.02
2022-10-21T23:31:14.823Z,9.45
2022-10-21T23:34:02.714Z,8.93
2022-10-21T23:36:49.771Z,9.27
2022-10-21T23:39:36.982Z,9.45
2022-10-21T23:42:24.610Z,9.05
2022-10-21T23:45:13.128Z,8.85
2022-10-21T23:48:00.299Z,9.18
2022-10-21T23:50:47.279Z,8.95
2022-10-21T23:53:34.746Z,7.55
2022-10-21T23:56:21.802Z,8.00
2022-10-21T23:59:09.018Z,8.85
